Tiempo atmosférico en la estación meteorológica de Cabo Busto, Asturias (63 m.)

Fecha
DESCASC
Temp. máxima en grados centígrados (hora)
DESCASC
Temp. mínima en grados centígrados (hora)
DESCASC
Temp. media en grados centígrados
DESCASC
Racha de viento máxima en m/sg (hora)
DESCASC
Velocidad máxima media en intervalos de 10 minutos(hora)
DESCASC
Precipitaciones diarias en mm
DESCASC
Precipitaciones de 00:00 a 06:00 en mm
DESCASC
Precipitaciones de 06:00 a 12:00 en mm
DESCASC
Precipitaciones de 12:00 a 18:00 en mm
DESCASC
Precipitaciones de 18:00 a 24:00 en mm
DESCASC
21-08-2017 22.5 (15:50) 15.3 (06:50) 18.9 11.67 (21:00) 9.17 (21:00) 0 0 0 0 0
20-08-2017 20.5 (12:50) 15.3 (07:50) 17.9 20 (15:00) 10.28 (15:10) 0 0 0 0 0
19-08-2017 20.6 (16:50) 18.2 (23:59) 19.4 13.61 (18:20) 6.67 (18:00) 0 0 0 0 0
18-08-2017 22.8 (16:20) 18.6 (04:10) 20.7 15 (06:00) 7.22 (06:30) 1.4 0 1.4 0 0
17-08-2017 24.5 (12:20) 16.3 (00:00) 20.4 6.39 (16:00) 4.72 (03:10) 0 0 0 0 0
16-08-2017 22.4 (16:50) 15 (00:00) 18.7 5.56 (08:30) 4.17 (08:00) 0 0 0 0 0
15-08-2017 22.5 (17:30) 18.8 (00:00) 20.6 6.11 (12:10) 4.17 (08:00) 0 0 0 0 0
14-08-2017 22.1 (12:20) 16.3 (08:10) 19.2 12.22 (20:20) 7.78 (20:10) 0 0 0 0 0
13-08-2017 20.9 (12:40) 14.1 (00:00) 17.5 18.33 (20:10) 9.17 (18:40) 0 0 0 0 0
12-08-2017 22 (16:00) 14.1 (00:00) 18.1 11.67 (19:40) 6.39 (22:20) 0 0 0 0 0
11-08-2017 21.2 (16:30) 12.7 (00:00) 17 11.39 (16:10) 5.83 (22:10) 0 0 0 0 0
10-08-2017 21.8 (18:10) 13 (00:00) 17.4 9.72 (19:30) 5.28 (04:10) 0.4 0.4 0 0 0
09-08-2017 21.1 (16:40) 14.9 (00:00) 18 15.83 (13:30) 9.72 (08:00) 1 0.4 0.4 0.2 0
08-08-2017 21.9 (16:20) 14.3 (00:00) 18.1 11.39 (07:50) 8.33 (21:40) 0.4 0 0.4 0 0
07-08-2017 18.6 (00:00) 15.4 (00:00) 17 13.89 (11:50) 6.94 (21:10) 9.2 0 0.6 6.6 2
06-08-2017 20.4 (14:40) 16.7 (00:00) 18.6 21.39 (15:40) 8.89 (19:00) 0.4 0.4 0 0 0
05-08-2017 18.9 (00:00) 16.2 (00:00) 17.6 12.22 (02:40) 6.67 (02:40) 9.6 5.4 1.4 0.2 2.6
04-08-2017 25 (15:00) 18 (00:00) 21.5 10.83 (23:10) 6.11 (07:10) 0.8 0 0 0 0.8
03-08-2017 22.6 (14:40) 18.2 (00:00) 20.4 13.33 (09:50) 6.39 (09:50) 0 0 0 0 0
02-08-2017 24.1 (17:20) 14.7 (00:00) 19.4 8.33 (07:20) 6.11 (07:10) 0 0 0 0 0
01-08-2017 20.9 (17:30) 15.8 (00:00) 18.3 9.17 (19:00) 4.44 (07:50) 0 0 0 0 0
31-07-2017 20.7 (13:30) 16.4 (00:00) 18.6 8.06 (15:00) 5 (14:00) 0 0 0 0 0
30-07-2017 22.8 (12:50) 18.8 (00:00) 20.8 12.5 (17:30) 8.33 (00:40) 0 0 0 0 0
29-07-2017 26.1 (11:40) 18.7 (00:00) 22.4 7.22 (21:20) 4.17 (00:50) 0 0 0 0 0
28-07-2017 22.5 (14:10) 17.4 (00:00) 19.9 6.39 (20:10) 3.89 (20:20) 0.2 0 0.2 0 0
27-07-2017 23.9 (13:40) 15.2 (00:00) 19.5 9.17 (14:10) 6.67 (14:30) 0.2 0 0 0 0.2
26-07-2017 22.6 (14:30) 14.6 (00:00) 18.6 7.5 (15:00) 5.28 (15:00) 0 0 0 0 0
25-07-2017 21.3 (13:10) 15.6 (00:00) 18.4 6.67 (16:10) 3.89 (00:30) 0 0 0 0 0
24-07-2017 21.5 (15:30) 16.8 (00:00) 19.1 16.67 (00:20) 10 (00:10) 3.2 0.4 1.8 0.6 0.4
23-07-2017 24.4 (16:40) 14.9 (00:00) 19.6 16.11 (23:59) 9.44 (23:59) 0 0 0 0 0

Gráficas

Temp. máximas Temp. mínimas Temp. medias Precipitaciones Rachas de viento máximas Velocidades máximas media en intervalos de 10 minutos

Datos horarios

Fecha y hora oficial Temperatura (ºC) Velocidad del viento (km/h) Dirección del viento Racha (km/h) Dirección de racha Precipitación (mm) Presión (hPa) Tendencia (hPa) Humedad (%)
2017-08-21 23:00:00 19.2 10 Oeste 37 Oeste 0 1006.4 1.6 81
2017-08-21 22:00:00 19.6 27 Oeste 39 Oeste 0 1005.5 0.6 80
2017-08-21 21:00:00 21.2 33 Oeste 42 Oeste 0 1004.9 -0.2 72
2017-08-21 20:00:00 21 4 Sudoeste 18 Este 0 1004.8 -0.8 73
2017-08-21 19:00:00 20.9 15 Este 30 Este 0 1004.9 -1.7 71
2017-08-21 18:00:00 21.6 17 Este 32 Este 0 1005.1 -2.2 69
2017-08-21 17:00:00 22.1 17 Este 35 Este 0 1005.6 -2.1 67
2017-08-21 16:00:00 22.3 15 Este 34 Este 0 1006.6 -1.8 67
2017-08-21 15:00:00 21.7 18 Este 37 Este 0 1007.3 -1.6 69
2017-08-21 14:00:00 21.4 19 Este 37 Nordeste 0 1007.7 -1.6 63
2017-08-21 13:00:00 21 12 Este 21 Este 0 1008.4 -1 71
2017-08-21 12:00:00 20.7 5 Este 9 Nordeste 0 1008.9 -0.8 75
2017-08-21 11:00:00 20.4 4 Noroeste 7 Oeste 0 1009.3 -0.6 76
2017-08-21 10:00:00 19.2 8 Oeste 10 Oeste 0 1009.4 -0.6 83
2017-08-21 09:00:00 17.1 4 Sudoeste 10 Sur 0 1009.7 -0.7 89
2017-08-21 08:00:00 15.6 7 Sudoeste 13 Sudoeste 0 1009.9 -1 88
2017-08-21 07:00:00 15.3 8 Sur 12 Sudeste 0 1010 -1.3 88
2017-08-21 06:00:00 16.4 8 Sudeste 26 Nordeste 0 1010.4 -1.4 84
2017-08-21 05:00:00 18.1 16 Este 30 Este 0 1010.9 -1.2 81
2017-08-21 04:00:00 17.8 12 Este 36 Este 0 1011.3 -1 83
2017-08-21 03:00:00 17.9 18 Este 42 Este 0 1011.8 -0.7 84
2017-08-21 02:00:00 17.8 21 Este 34 Este 0 1012.1 -0.6 85
2017-08-21 01:00:00 17.8 22 Este 40 Este 0 1012.3 -0.6 86
2017-08-21 00:00:00 17.9 24 Este 36 Este 0 1012.5 -0.1 86
2017-08-20 23:00:00 18 19 Este 44 Este 0 1012.7 -0.2 85
2017-08-20 22:00:00 18.3 24 Este 47 Nordeste 0 1012.9 -0.3 84
2017-08-20 21:00:00 18.7 23 Nordeste 55 Nordeste 0 1012.6 -1.1 82
2017-08-20 20:00:00 19.2 28 Nordeste 60 Nordeste 0 1012.9 -1.4 79
2017-08-20 19:00:00 19.5 32 Nordeste 57 Nordeste 0 1013.2 -1.6 77
2017-08-20 18:00:00 19.8 33 Nordeste 68 Nordeste 0 1013.7 -1.2 76
2017-08-20 17:00:00 19.9 36 Nordeste 65 Norte 0 1014.3 -0.8 76
2017-08-20 16:00:00 20 36 Nordeste 69 Nordeste 0 1014.8 -0.3 74
2017-08-20 15:00:00 20.1 35 Nordeste 72 Nordeste 0 1014.9 -0.6 73
2017-08-20 14:00:00 20.1 31 Nordeste 59 Nordeste 0 1015.1 -0.7 71
2017-08-20 13:00:00 20.5 26 Nordeste 49 Nordeste 0 1015.1 -1.1 69
2017-08-20 12:00:00 20.1 22 Nordeste 53 Nordeste 0 1015.5 -0.7 72
2017-08-20 11:00:00 19.4 21 Nordeste 43 Nordeste 0 1015.8 -0.4 77
2017-08-20 10:00:00 19.7 7 Este 21 Sudeste 0 1016.2 0.2 74
2017-08-20 09:00:00 17.3 12 Sudeste 23 Sudeste 0 1016.2 0.3 82
2017-08-20 08:00:00 15.4 13 Sudeste 18 Sudeste 0 1016.2 0.1 86
2017-08-20 07:00:00 15.6 11 Sudeste 16 Sudeste 0 1016 -0.5 85
2017-08-20 06:00:00 16.3 9 Sudeste 17 Sudeste 0 1015.9 -0.7 85
2017-08-20 05:00:00 15.7 12 Sudeste 16 Sudeste 0 1016.1 -1 86
2017-08-20 04:00:00 16.2 9 Sudeste 16 Este 0 1016.5 -1 85
2017-08-20 03:00:00 17.3 10 Este 17 Este 0 1016.6 -1.3 83
2017-08-20 02:00:00 17.6 8 Este 21 Este 0 1017.1 -0.8 82
2017-08-20 01:00:00 18.3 12 Este 22 Nordeste 0 1017.5 0.1 80
2017-08-20 00:00:00 18.2 11 Este 28 Este 0 1017.9 1.2 81
2017-08-19 23:00:00 18.7 21 Este 36 Este 0 1017.9 1.2 82
2017-08-19 22:00:00 18.8 16 Nordeste 36 Nordeste 0 1017.4 1 82
2017-08-19 21:00:00 19 18 Este 37 Nordeste 0 1016.7 0.6 81
2017-08-19 20:00:00 19.6 20 Nordeste 39 Nordeste 0 1016.7 0.6 78
2017-08-19 19:00:00 19.7 23 Nordeste 49 Nordeste 0 1016.4 0.1 76
2017-08-19 18:00:00 20.1 24 Nordeste 47 Nordeste 0 1016.1 -0.5 74
2017-08-19 17:00:00 20.5 22 Nordeste 42 Norte 0 1016.1 -0.5 73
2017-08-19 16:00:00 20.2 21 Nordeste 37 Nordeste 0 1016.3 -0.4 72
2017-08-19 15:00:00 20 15 Nordeste 35 Nordeste 0 1016.6 -0.1 73
2017-08-19 14:00:00 19.7 19 Nordeste 35 Nordeste 0 1016.6 0.3 72
2017-08-19 13:00:00 19.7 18 Nordeste 34 Nordeste 0 1016.7 0.6 74
2017-08-19 12:00:00 19 21 Este 41 Este 0 1016.7 0.6 76
2017-08-19 11:00:00 19.1 18 Nordeste 46 Nordeste 0 1016.3 0.6 74
2017-08-19 10:00:00 18.9 12 Norte 37 Nordeste 0 1016.1 1 75
2017-08-19 09:00:00 18.8 17 Nordeste 36 Nordeste 0 1016.1 0.9 76
2017-08-19 08:00:00 18.7 15 Nordeste 38 Norte 0 1015.7 0.7 78
2017-08-19 07:00:00 18.7 11 Norte 39 Nordeste 0 1015.1 0.2 77
2017-08-19 06:00:00 18.8 12 Norte 37 Nordeste 0 1015.2 -0.1 77
2017-08-19 05:00:00 18.9 17 Nordeste 39 Nordeste 0 1015 -0.7 78
2017-08-19 04:00:00 18.9 15 Nordeste 47 Norte 0 1014.9 -1 79
2017-08-19 03:00:00 19.1 10 Norte 35 Nordeste 0 1015.3 -0.6 79
2017-08-19 02:00:00 19.3 8 Oeste 29 Noroeste 0 1015.7 -0.1 79
2017-08-19 01:00:00 19.5 7 Noroeste 22 Nordeste 0 1015.9 0.4 80
2017-08-19 00:00:00 19.5 8 Noroeste 20 Noroeste 0 1015.9 0.6 79
2017-08-18 23:00:00 19.6 7 Oeste 22 Sudoeste 0 1015.8 0.9 80
2017-08-18 22:00:00 19.7 5 Nordeste 14 Este 0 1015.5 0.6 84
2017-08-18 21:00:00 19.6 8 Este 18 Norte 0 1015.3 1.1 83
2017-08-18 20:00:00 19.8 9 Noroeste 21 Noroeste 0 1014.9 0.9 84
2017-08-18 19:00:00 20.5 10 Noroeste 14 Noroeste 0 1014.9 0 81
2017-08-18 18:00:00 21.2 7 Noroeste 14 Noroeste 0 1014.2 -0.7 77
2017-08-18 17:00:00 21.9 10 Noroeste 17 Oeste 0 1014 -0.5 78
2017-08-18 16:00:00 22.3 8 Oeste 13 Oeste 0 1014.9 0.6 79
2017-08-18 15:00:00 21.6 5 Noroeste 10 Oeste 0 1014.9 0.7 80
2017-08-18 14:00:00 21.4 4 Noroeste 13 Oeste 0 1014.5 0.8 82
2017-08-18 13:00:00 21.1 3 Norte 12 Nordeste 0 1014.3 1.5 81
2017-08-18 12:00:00 20.4 4 Sudoeste 23 Noroeste 0 1014.2 1.7 85
2017-08-18 11:00:00 20.6 6 Este 15 Este 0 1013.7 1.5 84
2017-08-18 10:00:00 20.1 2 Este 12 Sudeste 0 1012.8 1 85
2017-08-18 09:00:00 19 5 Sur 16 Sur 0 1012.5 0.7 88
2017-08-18 08:00:00 18.9 9 Sur 18 Sudoeste 0.8 1012.2 0.8 88
2017-08-18 07:00:00 19 13 Sudoeste 45 Noroeste 0.6 1011.8 0.5 89
2017-08-18 06:00:00 19.3 25 Oeste 54 Oeste 0 1011.8 0.1 85
2017-08-18 05:00:00 19.4 4 Sudoeste 19 Sudeste 0 1011.4 -0.7 82
2017-08-18 04:00:00 18.7 15 Sur 19 Sur 0 1011.3 -1.3 83
2017-08-18 03:00:00 19.8 8 Sudoeste 21 Sur 0 1011.7 -1.4 79
2017-08-18 02:00:00 19.9 20 Sudeste 33 Sudeste 0 1012.1 -1.1 78
2017-08-18 01:00:00 20.6 20 Sur 28 Sur 0 1012.6 -0.5 75
2017-08-18 00:00:00 20.6 17 Sudeste 23 Sur 0 1013.1 0.4 75
2017-08-17 23:00:00 20.8 13 Sudeste 18 Sur 0 1013.2 0.8 76
2017-08-17 22:00:00 21.3 4 Sur 7 Sur 0 1013.1 0.9 77
2017-08-17 21:00:00 21.4 0 Calma 9 Norte 0 1012.7 0.5 75
2017-08-17 20:00:00 21.8 4 Norte 12 Norte 0 1012.4 0.1 76
2017-08-17 19:00:00 22.4 4 Nordeste 11 Norte 0 1012.2 0 75
2017-08-17 18:00:00 23.5 4 Este 17 Este 0 1012.2 -0.6 69
2017-08-17 17:00:00 23.4 11 Este 18 Este 0 1012.3 -1.1 69
2017-08-17 16:00:00 23.5 11 Este 23 Este 0 1012.2 -1.5 68
2017-08-17 15:00:00 24 7 Este 13 Este 0 1012.8 -0.8 67
2017-08-17 14:00:00 23.7 6 Este 12 Este 0 1013.4 -0.3 68
2017-08-17 13:00:00 22.7 8 Nordeste 15 Este 0 1013.7 0.2 74
2017-08-17 12:00:00 24.3 8 Este 16 Sur 0 1013.6 -0.2 65
2017-08-17 11:00:00 22.8 11 Sudeste 22 Sudeste 0 1013.7 0 71
2017-08-17 10:00:00 19.6 13 Sudeste 20 Sur 0 1013.5 0.2 80
2017-08-17 09:00:00 18.3 14 Sur 19 Sur 0 1013.8 0.7 82
2017-08-17 08:00:00 17.5 14 Sur 20 Sudeste 0 1013.7 0.6 83
2017-08-17 07:00:00 17.4 15 Sudeste 19 Sur 0 1013.3 -0.1 83
2017-08-17 06:00:00 17.3 15 Sudeste 20 Sudeste 0 1013.1 -0.6 84
2017-08-17 05:00:00 16.8 15 Sudeste 22 Sudeste 0 1013.1 -0.7 85
2017-08-17 04:00:00 16.4 15 Sudeste 21 Sudeste 0 1013.4 -0.5 85
2017-08-17 03:00:00 16.7 17 Sudeste 20 Sudeste 0 1013.7 -0.6 85
2017-08-17 02:00:00 17.1 15 Sudeste 20 Sudeste 0 1013.8 -0.9 84
2017-08-17 01:00:00 18.1 13 Sudeste 18 Sudeste 0 1013.9 -1.1 81
2017-08-17 00:00:00 18.4 13 Sudeste 17 Sudeste 0 1014.3 -0.6 80
2017-08-16 23:00:00 18.5 10 Sudeste 14 Sudeste 0 1014.7 -0.2 80
2017-08-16 22:00:00 19.3 5 Sur 8 Sur 0 1015 0.2 75
2017-08-16 21:00:00 20.8 0 Calma 7 Sudeste 0 1014.9 0.5 69
2017-08-16 20:00:00 21.2 4 Sudeste 10 Sudeste 0 1014.9 0.5 67
2017-08-16 19:00:00 21.6 4 Este 15 Nordeste 0 1014.8 0.1 71
2017-08-16 18:00:00 21.9 9 Este 16 Este 0 1014.4 -0.7 65
2017-08-16 17:00:00 22.1 8 Este 18 Nordeste 0 1014.4 -0.5 62
2017-08-16 16:00:00 21.9 9 Este 16 Nordeste 0 1014.7 0 64
2017-08-16 15:00:00 21.4 9 Este 17 Este 0 1015.1 0.3 68
2017-08-16 14:00:00 21.3 12 Este 18 Nordeste 0 1014.9 -0.3 71
2017-08-16 13:00:00 20.9 7 Este 17 Este 0 1014.7 -0.2 73
2017-08-16 12:00:00 20.8 5 Nordeste 11 Nordeste 0 1014.8 0.4 72
2017-08-16 11:00:00 20.7 3 Noroeste 8 Norte 0 1015.2 0.9 71
2017-08-16 10:00:00 19.5 2 Norte 15 Sudeste 0 1014.9 0.8 79
2017-08-16 09:00:00 16.5 12 Sudeste 20 Sudeste 0 1014.4 0.7 87
2017-08-16 08:00:00 15.1 15 Sudeste 19 Sudeste 0 1014.3 0.6 89
2017-08-16 07:00:00 15.3 11 Sudeste 15 Sudeste 0 1014.1 0.1 89
2017-08-16 06:00:00 15.8 9 Sur 12 Sur 0 1013.7 -0.4 86
2017-08-16 05:00:00 16.7 9 Sur 13 Sudoeste 0 1013.7 -0.6 84
2017-08-16 04:00:00 18.4 12 Sudoeste 15 Sudoeste 0 1014 -0.3 81
2017-08-16 03:00:00 18.4 8 Oeste 13 Sudoeste 0 1014.1 -0.6 78
2017-08-16 02:00:00 18.1 6 Sur 12 Sur 0 1014.3 -0.5 84
2017-08-16 01:00:00 18.3 9 Sur 12 Sur 0 1014.3 0 83
2017-08-16 00:00:00 19 8 Sudoeste 15 Oeste 0 1014.7 0.7 83
2017-08-15 23:00:00 19 10 Oeste 14 Oeste 0 1014.8 1.1 84
2017-08-15 22:00:00 19.1 8 Oeste 13 Oeste 0 1014.3 0.7 82
2017-08-15 21:00:00 19.3 8 Sudoeste 14 Oeste 0 1014 0.5 82
2017-08-15 20:00:00 19.8 8 Oeste 12 Oeste 0 1013.7 0.2 80
2017-08-15 19:00:00 20.4 9 Oeste 13 Oeste 0 1013.6 0.2 79
2017-08-15 18:00:00 21.5 8 Oeste 15 Oeste 0 1013.5 0.2 76
2017-08-15 17:00:00 21.2 8 Oeste 16 Oeste 0 1013.5 0.5 78
2017-08-15 16:00:00 21.5 8 Oeste 18 Oeste 0 1013.4 0.4 79
2017-08-15 15:00:00 21.3 9 Oeste 17 Oeste 0 1013.3 0.5 79
2017-08-15 14:00:00 21.9 10 Oeste 16 Oeste 0 1013 1 79
2017-08-15 13:00:00 21.1 9 Oeste 22 Noroeste 0 1013 1.2 82
2017-08-15 12:00:00 19.7 14 Oeste 21 Oeste 0 1012.8 1.5 85
2017-08-15 11:00:00 19.9 11 Oeste 15 Oeste 0 1012 1.1 86
2017-08-15 10:00:00 18.9 13 Oeste 19 Oeste 0 1011.8 1.3 88
2017-08-15 09:00:00 19 11 Oeste 17 Oeste 0 1011.3 1.1 88
2017-08-15 08:00:00 18.8 15 Oeste 19 Oeste 0 1010.9 0.8 88
2017-08-15 07:00:00 18.9 9 Sudoeste 15 Sudoeste 0 1010.5 0.3 88
2017-08-15 06:00:00 18.8 12 Oeste 16 Oeste 0 1010.2 0.2 88
2017-08-15 05:00:00 19 5 Sudoeste 14 Oeste 0 1010.1 -0.1 87
2017-08-15 04:00:00 19 11 Oeste 17 Oeste 0 1010.2 -0.1 88
2017-08-15 03:00:00 19.1 12 Oeste 19 Oeste 0 1010 -0.1 89
2017-08-15 02:00:00 19.1 13 Oeste 21 Oeste 0 1010.2 0.3 89
2017-08-15 01:00:00 19.3 13 Oeste 19 Oeste 0 1010.3 1.1 86
2017-08-15 00:00:00 19.7 12 Oeste 18 Oeste 0 1010.1 1.5 84
2017-08-14 23:00:00 19.8 9 Oeste 17 Oeste 0 1009.9 2 84
2017-08-14 22:00:00 19.6 16 Oeste 32 Oeste 0 1009.2 1.6 86
2017-08-14 21:00:00 19.5 23 Oeste 44 Oeste 0 1008.6 1.5 85
2017-08-14 20:00:00 19.3 26 Oeste 42 Oeste 0 1007.9 1.1 83
2017-08-14 19:00:00 20.2 26 Oeste 38 Oeste 0 1007.6 1.1 81
2017-08-14 18:00:00 20.6 27 Oeste 35 Sudoeste 0 1007.1 1.2 76
2017-08-14 17:00:00 20 23 Oeste 38 Oeste 0 1006.8 1.2 81
2017-08-14 16:00:00 19.8 26 Oeste 37 Oeste 0 1006.5 1.1 83
2017-08-14 15:00:00 20.6 18 Oeste 27 Oeste 0 1005.9 0.2 79
2017-08-14 14:00:00 20.9 3 Oeste 9 Oeste 0 1005.6 0 78
2017-08-14 13:00:00 20.4 4 Este 9 Este 0 1005.4 0 78
2017-08-14 12:00:00 21.2 5 Noroeste 8 Noroeste 0 1005.7 0.4 76
2017-08-14 11:00:00 19.9 5 Oeste 9 Oeste 0 1005.6 0.4 82
2017-08-14 10:00:00 18.9 3 Oeste 9 Sur 0 1005.4 0.6 85
2017-08-14 09:00:00 17.6 7 Sur 13 Sur 0 1005.3 0.3 88
2017-08-14 08:00:00 16.7 6 Sudoeste 19 Sudoeste 0 1005.2 -0.3 88
2017-08-14 07:00:00 17.3 17 Sudoeste 19 Sudoeste 0 1004.8 -1.3 88
2017-08-14 06:00:00 17.1 7 Sudoeste 9 Sur 0 1005 -1.6 87
2017-08-14 05:00:00 17.5 5 Sudeste 16 Este 0 1005.5 -1.8 85
2017-08-14 04:00:00 18 8 Este 22 Este 0 1006.1 -1.9 85
2017-08-14 03:00:00 18.7 12 Este 23 Este 0 1006.6 -1.9 84
2017-08-14 02:00:00 18.7 13 Este 28 Este 0 1007.3 -1.4 85
2017-08-14 01:00:00 18.8 16 Este 34 Este 0 1008 -0.7 85
2017-08-14 00:00:00 18.7 18 Este 31 Este 0 1008.5 -0.3 86
2017-08-13 23:00:00 18.7 23 Este 48 Este 0 1008.7 -0.3 85
2017-08-13 22:00:00 18.8 24 Nordeste 54 Este 0 1008.7 -0.3 84
2017-08-13 21:00:00 19 26 Nordeste 66 Nordeste 0 1008.8 -0.5 83
2017-08-13 20:00:00 19.6 32 Nordeste 62 Nordeste 0 1009 -0.8 81
2017-08-13 19:00:00 19.9 30 Nordeste 61 Nordeste 0 1009 -1.4 78
2017-08-13 18:00:00 20.2 31 Nordeste 63 Nordeste 0 1009.3 -1.6 77
2017-08-13 17:00:00 20.4 30 Nordeste 61 Nordeste 0 1009.8 -1.6 76
2017-08-13 16:00:00 20.5 30 Nordeste 57 Nordeste 0 1010.4 -1.3 75
2017-08-13 15:00:00 20.4 29 Nordeste 58 Nordeste 0 1010.9 -1.4 75
2017-08-13 14:00:00 20.7 24 Nordeste 62 Nordeste 0 1011.4 -1.2 73
2017-08-13 13:00:00 20.7 21 Nordeste 53 Nordeste 0 1011.7 -1.4 73
2017-08-13 12:00:00 20.4 17 Nordeste 44 Nordeste 0 1012.3 -0.6 73
2017-08-13 11:00:00 19.9 20 Este 44 Este 0 1012.6 -0.1 71
2017-08-13 10:00:00 19.1 9 Este 18 Este 0 1013.1 0.5 73
2017-08-13 09:00:00 16.2 9 Sudeste 17 Sudeste 0 1012.9 0.1 84
2017-08-13 08:00:00 14.2 11 Sudeste 18 Sudeste 0 1012.7 -0.6 87
2017-08-13 07:00:00 14.7 13 Sudeste 24 Sudeste 0 1012.6 -1.3 86
2017-08-13 06:00:00 14.3 14 Sudeste 21 Sudeste 0 1012.8 -1.5 87
2017-08-13 05:00:00 14.6 12 Sudeste 19 Sudeste 0 1013.3 -1.3 87
2017-08-13 04:00:00 15.1 12 Sudeste 21 Sudeste 0 1013.9 -0.9 86
2017-08-13 03:00:00 15.6 10 Sudeste 16 Sudeste 0 1014.3 -0.7 86
2017-08-13 02:00:00 15.5 11 Sudeste 15 Sudeste 0 1014.6 -0.7 85
2017-08-13 01:00:00 17.1 9 Este 19 Este 0 1014.8 -0.1 80
2017-08-13 00:00:00 17.7 9 Este 30 Este 0 1015 0 80
2017-08-12 23:00:00 18.3 16 Este 39 Este 0 1015.3 0 81
2017-08-12 22:00:00 18.7 18 Nordeste 40 Nordeste 0 1014.9 -0.5 80
2017-08-12 21:00:00 18.9 20 Nordeste 42 Nordeste 0 1015 -0.6 77
2017-08-12 20:00:00 19.6 21 Nordeste 42 Nordeste 0 1015.3 -0.4 76
2017-08-12 19:00:00 20.8 13 Norte 41 Nordeste 0 1015.4 -0.7 71
2017-08-12 18:00:00 20.4 18 Nordeste 41 Nordeste 0 1015.6 -0.5 70
2017-08-12 17:00:00 21 17 Nordeste 38 Nordeste 0 1015.7 -0.6 70
2017-08-12 16:00:00 21.8 8 Norte 32 Nordeste 0 1016.1 -0.3 69
2017-08-12 15:00:00 21.4 10 Nordeste 34 Nordeste 0 1016.1 -0.2 70
2017-08-12 14:00:00 21.2 9 Norte 31 Nordeste 0 1016.3 0.2 69
2017-08-12 13:00:00 20.9 11 Nordeste 31 Nordeste 0 1016.4 0.2 68
2017-08-12 12:00:00 20.4 13 Nordeste 24 Nordeste 0 1016.3 0.3 67
2017-08-12 11:00:00 20 8 Este 14 Nordeste 0 1016.1 0.5 69
2017-08-12 10:00:00 19.1 5 Este 14 Sudeste 0 1016.2 0.6 71
2017-08-12 09:00:00 16.2 10 Sudeste 17 Sudeste 0 1016 0.3 83
2017-08-12 08:00:00 14.6 12 Sudeste 15 Sudeste 0 1015.6 -0.5 85
2017-08-12 07:00:00 15.2 10 Sudeste 15 Sudeste 0 1015.6 -0.6 85
2017-08-12 06:00:00 15.3 8 Sudeste 14 Sudeste 0 1015.7 -0.7 85
2017-08-12 05:00:00 15.1 11 Sudeste 18 Sudeste 0 1016.1 -0.7 86
2017-08-12 04:00:00 14.4 14 Sudeste 18 Sudeste 0 1016.2 -0.8 87
2017-08-12 03:00:00 14.2 14 Sudeste 18 Sudeste 0 1016.4 -0.9 86
2017-08-12 02:00:00 15.1 8 Este 17 Sudeste 0 1016.8 -0.8 83
2017-08-12 01:00:00 15.5 11 Sudeste 19 Nordeste 0 1017 -0.2 81
2017-08-12 00:00:00 17.2 10 Este 20 Este 0 1017.3 0.2 77
2017-08-11 23:00:00 17.7 13 Este 33 Este 0 1017.6 0.3 76
2017-08-11 22:00:00 18.2 19 Este 37 Este 0 1017.2 -0.1 73
2017-08-11 21:00:00 18.4 16 Nordeste 39 Nordeste 0 1017.1 -0.5 71
2017-08-11 20:00:00 19.4 14 Nordeste 40 Nordeste 0 1017.3 -0.4 68
2017-08-11 19:00:00 19.9 14 Nordeste 36 Nordeste 0 1017.3 -0.5 68
2017-08-11 18:00:00 20.1 13 Nordeste 38 Nordeste 0 1017.6 -0.3 68
2017-08-11 17:00:00 20.3 12 Norte 41 Nordeste 0 1017.7 -0.5 66
2017-08-11 16:00:00 20.9 13 Nordeste 39 Nordeste 0 1017.8 -0.5 63
2017-08-11 15:00:00 20.8 14 Nordeste 34 Oeste 0 1017.9 -0.5 65
2017-08-11 14:00:00 20.6 9 Noroeste 33 Nordeste 0 1018.2 -0.1 67
2017-08-11 13:00:00 20.2 9 Noroeste 33 Nordeste 0 1018.3 0 68
2017-08-11 12:00:00 19.7 8 Noroeste 37 Nordeste 0 1018.4 0.2 67
2017-08-11 11:00:00 19 9 Este 16 Este 0 1018.3 0.5 65
2017-08-11 10:00:00 17 10 Sudeste 19 Sudeste 0 1018.3 0.7 72
2017-08-11 09:00:00 14.4 14 Sudeste 23 Sudeste 0 1018.2 0.4 82
2017-08-11 08:00:00 12.8 18 Sudeste 24 Sudeste 0 1017.8 -0.5 85
2017-08-11 07:00:00 12.9 17 Sudeste 22 Sudeste 0 1017.6 -1.2 85
2017-08-11 06:00:00 13.3 17 Sudeste 23 Sur 0 1017.8 -1.5 85
2017-08-11 05:00:00 13.8 15 Sudeste 21 Sudeste 0 1018.3 -1.7 84
2017-08-11 04:00:00 14.3 16 Sudeste 21 Sudeste 0 1018.8 -1.3 82
2017-08-11 03:00:00 14.8 13 Sudeste 18 Sudeste 0 1019.3 -0.9 81
2017-08-11 02:00:00 14.9 10 Sudeste 14 Sudeste 0 1020 -0.5 80
2017-08-11 01:00:00 15.4 10 Sudeste 19 Este 0 1020.1 -0.2 76
2017-08-11 00:00:00 16.2 10 Este 19 Este 0 1020.2 0.1 73
2017-08-10 23:00:00 17.5 10 Este 28 Nordeste 0 1020.5 0.2 69
2017-08-10 22:00:00 17.9 12 Nordeste 32 Nordeste 0 1020.3 -0.4 67
2017-08-10 21:00:00 18.6 9 Norte 31 Norte 0 1020.1 -0.8 66
2017-08-10 20:00:00 19.7 8 Norte 35 Nordeste 0 1020.3 -0.8 65
2017-08-10 19:00:00 20.4 8 Norte 28 Nordeste 0 1020.7 -0.8 62
2017-08-10 18:00:00 21.7 5 Sudoeste 28 Norte 0 1020.9 -0.7 61
2017-08-10 17:00:00 20.9 8 Nordeste 21 Nordeste 0 1021.1 -0.4 60
2017-08-10 16:00:00 21.1 6 Sudoeste 22 Nordeste 0 1021.5 0.1 62
2017-08-10 15:00:00 21.4 6 Sudoeste 23 Nordeste 0 1021.6 0.3 61
2017-08-10 14:00:00 21.2 6 Oeste 22 Este 0 1021.5 0.6 60
2017-08-10 13:00:00 19.5 5 Noroeste 16 Sudoeste 0 1021.4 0.4 65
2017-08-10 12:00:00 19.5 6 Oeste 12 Oeste 0 1021.3 0.4 70
2017-08-10 11:00:00 18.1 3 Noroeste 17 Sur 0 1020.9 0.4 71
2017-08-10 10:00:00 16.5 12 Sudeste 19 Sur 0 1021 0.8 79
2017-08-10 09:00:00 14.8 13 Sudeste 19 Sudeste 0 1020.9 1 84
2017-08-10 08:00:00 13.6 14 Sudeste 21 Sudeste 0 1020.5 0.6 87
2017-08-10 07:00:00 13.2 13 Sudeste 20 Sudeste 0 1020.2 0 87
2017-08-10 06:00:00 13.4 16 Sudeste 21 Sudeste 0 1019.9 -0.4 87
2017-08-10 05:00:00 13.5 17 Sudeste 23 Sudeste 0 1019.9 -0.5 87
2017-08-10 04:00:00 13.2 17 Sudeste 21 Sudeste 0 1020.2 0 87
2017-08-10 03:00:00 13.8 15 Sudeste 21 Sur 0 1020.3 0.3 86
2017-08-10 02:00:00 14.1 15 Sudeste 19 Sudeste 0.4 1020.4 0.7 83
2017-08-10 01:00:00 14.1 14 Sudeste 19 Sudeste 0 1020.2 1.1 80
2017-08-10 00:00:00 15.6 7 Sudeste 22 Norte 0 1020 1.1 75
2017-08-09 23:00:00 17.1 4 Sur 17 Norte 0 1019.7 1.3 68
2017-08-09 22:00:00 17.4 6 Norte 20 Noroeste 0 1019.1 0.7 65
2017-08-09 21:00:00 18.1 10 Noroeste 23 Noroeste 0 1018.9 0.6 58
2017-08-09 20:00:00 18.9 10 Noroeste 27 Noroeste 0 1018.4 0.2 61
2017-08-09 19:00:00 18.9 13 Noroeste 23 Oeste 0 1018.4 0.4 58
2017-08-09 18:00:00 19.3 13 Noroeste 23 Noroeste 0 1018.3 0.7 62
2017-08-09 17:00:00 18.8 11 Noroeste 18 Oeste 0 1018.2 0.7 63
2017-08-09 16:00:00 19.8 12 Oeste 37 Noroeste 0 1018 1 65
2017-08-09 15:00:00 18.2 24 Noroeste 35 Noroeste 0 1017.6 1.2 65
2017-08-09 14:00:00 16.7 23 Oeste 57 Oeste 0.2 1017.5 1.6 74
2017-08-09 13:00:00 18 21 Oeste 36 Oeste 0 1017 1.8 62
2017-08-09 12:00:00 18.2 26 Noroeste 34 Noroeste 0 1016.4 1.6 58
2017-08-09 11:00:00 17.6 26 Noroeste 37 Oeste 0 1015.9 1.9 57
2017-08-09 10:00:00 16.8 27 Noroeste 39 Oeste 0 1015.2 1.2 61
2017-08-09 09:00:00 16.4 22 Oeste 43 Noroeste 0 1014.8 1.4 65
2017-08-09 08:00:00 16.2 35 Noroeste 47 Noroeste 0 1014 0.6 68
2017-08-09 07:00:00 15 16 Oeste 33 Oeste 0.4 1014 0.9 82
2017-08-09 06:00:00 15.6 19 Oeste 46 Noroeste 0.2 1013.4 0.1 79
2017-08-09 05:00:00 15.1 22 Oeste 42 Oeste 0.2 1013.4 -0.2 84
2017-08-09 04:00:00 16.6 28 Oeste 48 Oeste 0 1013.1 -0.6 73
2017-08-09 03:00:00 16.7 30 Oeste 54 Noroeste 0 1013.3 -0.6 73
2017-08-09 02:00:00 16.8 20 Oeste 40 Oeste 0 1013.6 -0.4 71
2017-08-09 01:00:00 16.8 23 Oeste 43 Oeste 0 1013.7 0.1 74
2017-08-09 00:00:00 17.3 21 Oeste 37 Oeste 0 1013.9 0.4 70
2017-08-08 23:00:00 17.3 14 Oeste 39 Noroeste 0 1014 0.5 70
2017-08-08 22:00:00 17.6 23 Oeste 41 Oeste 0 1013.6 0 69
2017-08-08 21:00:00 18.3 16 Oeste 33 Oeste 0 1013.5 -0.2 69
2017-08-08 20:00:00 19.4 17 Oeste 40 Oeste 0 1013.5 -0.2 60
2017-08-08 19:00:00 19.9 17 Oeste 31 Oeste 0 1013.6 -0.3 63
2017-08-08 18:00:00 21.2 12 Oeste 25 Oeste 0 1013.7 -0.4 62
2017-08-08 17:00:00 21.3 12 Oeste 27 Noroeste 0 1013.7 -0.5 60
2017-08-08 16:00:00 21.5 14 Oeste 32 Oeste 0 1013.9 -0.2 61
2017-08-08 15:00:00 19.8 18 Oeste 37 Oeste 0 1014.1 0.2 67
2017-08-08 14:00:00 20 17 Oeste 32 Noroeste 0 1014.2 0.7 68
2017-08-08 13:00:00 18.7 18 Oeste 33 Oeste 0 1014.1 0.9 71
2017-08-08 12:00:00 17.7 26 Oeste 39 Oeste 0 1013.9 1 74
2017-08-08 11:00:00 16.4 28 Oeste 38 Oeste 0 1013.5 0.9 81
2017-08-08 10:00:00 17 19 Oeste 38 Sudoeste 0 1013.2 1.2 78
2017-08-08 09:00:00 15.5 24 Oeste 34 Oeste 0 1012.9 1 84
2017-08-08 08:00:00 14.7 18 Sudoeste 41 Oeste 0.4 1012.6 0.8 87
2017-08-08 07:00:00 15.2 12 Sudoeste 26 Sudoeste 0 1012 0 81
2017-08-08 06:00:00 15.4 12 Sudoeste 23 Sudoeste 0 1011.9 -0.2 79
2017-08-08 05:00:00 14.8 10 Sudoeste 17 Sudeste 0 1011.8 -0.8 84
2017-08-08 04:00:00 15.2 12 Sudoeste 22 Sudoeste 0 1012 -0.6 80
2017-08-08 03:00:00 14.8 13 Sur 22 Oeste 0 1012.1 -0.2 83
2017-08-08 02:00:00 15.1 13 Sudoeste 21 Sudoeste 0 1012.6 0.1 82
2017-08-08 01:00:00 15.5 12 Sudoeste 20 Sudoeste 0 1012.6 0.8 81
2017-08-08 00:00:00 15.7 14 Sudoeste 23 Sudoeste 0 1012.3 1 82
2017-08-07 23:00:00 15.7 14 Sudoeste 23 Oeste 0 1012.5 1.4 85
2017-08-07 22:00:00 15.4 13 Sudoeste 39 Oeste 0.4 1011.8 0.9 88
2017-08-07 21:00:00 15.9 15 Oeste 33 Oeste 1 1011.3 0.4 88
2017-08-07 20:00:00 16.2 7 Sudoeste 21 Oeste 0.2 1011.1 0.4 87
2017-08-07 19:00:00 16.1 8 Oeste 19 Sudoeste 0.4 1010.9 0.6 90
2017-08-07 18:00:00 16.4 10 Sudoeste 16 Sudoeste 0.8 1010.9 0.9 91
2017-08-07 17:00:00 16.3 3 Norte 21 Noroeste 2.2 1010.7 1.2 91
2017-08-07 16:00:00 16.6 7 Noroeste 17 Norte 0.8 1010.3 1 91
2017-08-07 15:00:00 16.9 5 Norte 27 Nordeste 0.8 1010 0.7 91
2017-08-07 14:00:00 16.9 10 Norte 29 Nordeste 1.4 1009.5 0.3 91
2017-08-07 13:00:00 17.1 10 Noroeste 41 Nordeste 0.6 1009.3 0.4 91
2017-08-07 12:00:00 17.2 15 Nordeste 50 Nordeste 0.6 1009.3 0.5 90
2017-08-07 11:00:00 17.5 5 Nordeste 25 Nordeste 0 1009.2 0.4 87
2017-08-07 10:00:00 18 5 Noroeste 28 Nordeste 0 1008.9 0.1 86
2017-08-07 09:00:00 18.3 5 Nordeste 22 Este 0 1008.8 -0.2 81
2017-08-07 08:00:00 17.2 7 Sudeste 11 Sudeste 0 1008.8 -0.5 80
2017-08-07 07:00:00 17.1 7 Sudeste 14 Sudeste 0 1008.8 -1.4 80
2017-08-07 06:00:00 18.1 8 Este 21 Este 0 1009 -1.8 80
2017-08-07 05:00:00 18.3 10 Este 26 Nordeste 0 1009.3 -2.1 81
2017-08-07 04:00:00 18.2 9 Este 19 Este 0 1010.2 -1.8 79
2017-08-07 03:00:00 18.2 10 Este 30 Este 0 1010.8 -1.7 78
2017-08-07 02:00:00 18.4 15 Este 30 Este 0 1011.4 -1.3 76
2017-08-07 01:00:00 18.5 14 Este 32 Este 0 1012 -0.7 74
2017-08-07 00:00:00 18.6 18 Este 35 Nordeste 0 1012.5 -0.1 72
2017-08-06 23:00:00 18.7 18 Este 52 Este 0 1012.7 -0.2 71
2017-08-06 22:00:00 18.8 21 Nordeste 51 Nordeste 0 1012.7 -0.4 73
2017-08-06 21:00:00 18.8 26 Nordeste 69 Nordeste 0 1012.6 -1 72
2017-08-06 20:00:00 19 28 Nordeste 62 Nordeste 0 1012.9 -0.9 72
2017-08-06 19:00:00 19.3 32 Nordeste 62 Nordeste 0 1013.1 -1.2 71
2017-08-06 18:00:00 19.4 29 Nordeste 69 Nordeste 0 1013.6 -1.2 71
2017-08-06 17:00:00 19.9 31 Nordeste 65 Nordeste 0 1013.8 -1.4 68
2017-08-06 16:00:00 19.6 30 Nordeste 77 Nordeste 0 1014.3 -1.6 69
2017-08-06 15:00:00 19.7 25 Nordeste 59 Nordeste 0 1014.8 -1.4 69
2017-08-06 14:00:00 19.8 27 Nordeste 58 Nordeste 0 1015.2 -1 70
2017-08-06 13:00:00 19.7 22 Nordeste 53 Norte 0 1015.9 -0.4 68
2017-08-06 12:00:00 19.4 24 Nordeste 50 Este 0 1016.2 0.1 65
2017-08-06 11:00:00 19.2 27 Nordeste 54 Este 0 1016.2 0.4 65
2017-08-06 10:00:00 18.6 26 Este 58 Nordeste 0 1016.3 0.8 67
2017-08-06 09:00:00 18.4 26 Nordeste 63 Norte 0 1016.1 0.3 69
2017-08-06 08:00:00 18.1 28 Nordeste 59 Nordeste 0 1015.8 -0.3 71
2017-08-06 07:00:00 17.9 28 Nordeste 57 Nordeste 0 1015.5 -0.7 71
2017-08-06 06:00:00 17.4 21 Este 40 Nordeste 0 1015.8 -0.5 82
2017-08-06 05:00:00 16.9 18 Este 39 Este 0.2 1016.1 -0.4 87
2017-08-06 04:00:00 16.9 20 Este 37 Nordeste 0 1016.2 -0.6 87
2017-08-06 03:00:00 17.1 13 Este 37 Este 0.2 1016.3 -0.8 87
2017-08-06 02:00:00 17.9 10 Nordeste 33 Nordeste 0 1016.5 -0.7 82
2017-08-06 01:00:00 17.9 16 Este 33 Nordeste 0 1016.8 0.2 83
2017-08-06 00:00:00 17.6 16 Nordeste 34 Este 0 1017.1 0.7 85
2017-08-05 23:00:00 17.5 15 Este 35 Este 0 1017.2 0.8 86
2017-08-05 22:00:00 17.3 14 Este 36 Este 0 1016.6 0.2 84
2017-08-05 21:00:00 17.1 18 Este 35 Este 0 1016.4 -0.1 88
2017-08-05 20:00:00 16.7 6 Este 32 Este 0.8 1016.4 0.1 91
2017-08-05 19:00:00 16.7 15 Nordeste 30 Este 1.8 1016.4 -0.1 90
2017-08-05 18:00:00 17.2 10 Este 28 Este 0 1016.5 -0.1 90
2017-08-05 17:00:00 17.3 10 Este 29 Este 0 1016.3 -0.1 89
2017-08-05 16:00:00 17.2 10 Este 22 Este 0 1016.5 0.2 88
2017-08-05 15:00:00 17.7 5 Este 23 Norte 0 1016.6 0.4 87
2017-08-05 14:00:00 17.3 8 Sudoeste 31 Noroeste 0.2 1016.4 0.6 86
2017-08-05 13:00:00 17.2 9 Sudoeste 33 Oeste 0 1016.3 0.9 87
2017-08-05 12:00:00 17.7 8 Sudeste 18 Nordeste 0.4 1016.2 1.1 90
2017-08-05 11:00:00 17 4 Sudeste 14 Sudeste 0 1015.8 1.3 90
2017-08-05 10:00:00 16.7 9 Sur 17 Sudeste 0 1015.4 1.4 92
2017-08-05 09:00:00 16.3 6 Sudeste 15 Sudeste 0 1015.1 1.4 92
2017-08-05 08:00:00 16.4 6 Sur 10 Sur 0.2 1014.5 0.8 92
2017-08-05 07:00:00 16.5 3 Sudeste 32 Noroeste 0.8 1014 0.5 93
2017-08-05 06:00:00 16.8 11 Noroeste 27 Norte 1.4 1013.7 0.6 93
2017-08-05 05:00:00 16.9 6 Noroeste 19 Noroeste 1 1013.7 1 93
2017-08-05 04:00:00 17.1 14 Noroeste 35 Oeste 0.2 1013.5 1.1 93
2017-08-05 03:00:00 16.9 23 Noroeste 44 Noroeste 0.8 1013.1 0.9 93
2017-08-05 02:00:00 18.1 20 Norte 36 Norte 1 1012.7 1.1 92
2017-08-05 01:00:00 18.5 15 Norte 35 Norte 1 1012.4 1.1 92
2017-08-05 00:00:00 18.9 10 Oeste 39 Oeste 0.4 1012.2 1.2 92
2017-08-04 23:00:00 19.7 17 Noroeste 36 Norte 0.4 1011.6 0.6 91
2017-08-04 22:00:00 20.5 4 Noroeste 8 Noroeste 0 1011.3 0.5 90
2017-08-04 21:00:00 20.7 2 Norte 5 Nordeste 0 1011 0.3 89
2017-08-04 20:00:00 20.9 2 Nordeste 8 Nordeste 0 1011 0.2 88
2017-08-04 19:00:00 21.3 4 Este 11 Este 0 1010.8 0 85
2017-08-04 18:00:00 21.5 6 Este 13 Nordeste 0 1010.7 0.3 84
2017-08-04 17:00:00 21.9 8 Nordeste 15 Nordeste 0 1010.8 0.5 82
2017-08-04 16:00:00 22.7 8 Noroeste 17 Oeste 0 1010.8 0.3 78
2017-08-04 15:00:00 25 4 Sudeste 18 Nordeste 0 1010.4 -0.1 74
2017-08-04 14:00:00 23.2 7 Nordeste 14 Noroeste 0 1010.3 -0.1 79
2017-08-04 13:00:00 23.2 4 Noroeste 13 Oeste 0 1010.5 0.5 79
2017-08-04 12:00:00 24 4 Nordeste 15 Este 0 1010.5 1 77
2017-08-04 11:00:00 22.5 13 Este 21 Este 0 1010.4 1.3 76
2017-08-04 10:00:00 23.6 3 Sur 9 Sur 0 1010 1.2 74
2017-08-04 09:00:00 23.8 5 Sudoeste 12 Sudoeste 0 1009.5 0.8 69
2017-08-04 08:00:00 23.7 8 Oeste 28 Oeste 0 1009.1 0.1 68
2017-08-04 07:00:00 23.8 19 Oeste 33 Oeste 0 1008.8 -0.4 67
2017-08-04 06:00:00 23.8 18 Sudoeste 29 Sudoeste 0 1008.7 -0.8 66
2017-08-04 05:00:00 21.4 10 Sudoeste 15 Sudoeste 0 1009 -0.7 74
2017-08-04 04:00:00 19.7 11 Sur 15 Sur 0 1009.2 -1.1 79
2017-08-04 03:00:00 19.3 7 Sudoeste 15 Sudeste 0 1009.5 -1.2 81
2017-08-04 02:00:00 18.7 13 Sudeste 18 Sudeste 0 1009.7 -1.3 81
2017-08-04 01:00:00 18.1 9 Sur 13 Sudeste 0 1010.3 -0.9 82
2017-08-04 00:00:00 18.8 9 Sudeste 16 Sudeste 0 1010.7 -0.3 78
2017-08-03 23:00:00 19.5 8 Este 20 Este 0 1011 -0.2 77
2017-08-03 22:00:00 20 8 Este 19 Este 0 1011.2 -0.2 78
2017-08-03 21:00:00 20.5 9 Nordeste 18 Este 0 1011 -0.8 75
2017-08-03 20:00:00 21.2 7 Nordeste 18 Este 0 1011.2 -0.6 71
2017-08-03 19:00:00 21.7 8 Nordeste 19 Nordeste 0 1011.4 -0.4 71
2017-08-03 18:00:00 21.9 6 Nordeste 19 Nordeste 0 1011.8 -0.3 71
2017-08-03 17:00:00 22.2 9 Nordeste 19 Este 0 1011.8 -0.8 71
2017-08-03 16:00:00 22 6 Nordeste 15 Nordeste 0 1011.8 -0.8 71
2017-08-03 15:00:00 22.2 5 Nordeste 13 Oeste 0 1012.1 -0.4 68
2017-08-03 14:00:00 22.1 7 Noroeste 27 Noroeste 0 1012.6 0.1 70
2017-08-03 13:00:00 20.6 23 Oeste 30 Oeste 0 1012.6 0.2 71
2017-08-03 12:00:00 22.1 8 Oeste 18 Noroeste 0 1012.5 0.9 73
2017-08-03 11:00:00 20.1 9 Oeste 30 Oeste 0 1012.5 1.7 79
2017-08-03 10:00:00 19 20 Oeste 48 Oeste 0 1012.4 2.2 85
2017-08-03 09:00:00 20.6 14 Oeste 27 Noroeste 0 1011.6 1.6 84
2017-08-03 08:00:00 21.1 5 Sudeste 23 Oeste 0 1010.8 0.7 73
2017-08-03 07:00:00 21.9 16 Oeste 23 Oeste 0 1010.2 -0.1 67
2017-08-03 06:00:00 22.4 17 Oeste 29 Oeste 0 1010 -0.1 64
2017-08-03 05:00:00 20.7 14 Sudoeste 22 Sudoeste 0 1010.1 -0.7 70
2017-08-03 04:00:00 18.3 13 Sur 21 Sudeste 0 1010.3 -0.6 78
2017-08-03 03:00:00 18.6 17 Sudeste 23 Sudeste 0 1010.1 -1.1 77
2017-08-03 02:00:00 18.4 13 Sudeste 17 Sudeste 0 1010.8 0.4 78
2017-08-03 01:00:00 19.2 13 Sur 22 Sudeste 0 1010.9 0.9 73
2017-08-03 00:00:00 19.3 12 Sur 19 Sudeste 0 1011.2 1.3 72
2017-08-02 23:00:00 20.6 8 Este 17 Este 0 1010.4 0.5 66
2017-08-02 22:00:00 20.8 8 Este 14 Este 0 1010 0.4 68
2017-08-02 21:00:00 21.8 7 Este 12 Sudeste 0 1009.9 0.7 72
2017-08-02 20:00:00 22.5 2 Este 12 Este 0 1009.9 0.4 71
2017-08-02 19:00:00 22.9 8 Este 25 Nordeste 0 1009.6 -0.5 69
2017-08-02 18:00:00 23.1 10 Nordeste 23 Este 0 1009.2 -1.5 70
2017-08-02 17:00:00 23.7 13 Este 23 Sudeste 0 1009.5 -1.6 63
2017-08-02 16:00:00 23.3 13 Este 23 Este 0 1010.1 -1.6 65
2017-08-02 15:00:00 22.7 13 Este 18 Este 0 1010.7 -1 60
2017-08-02 14:00:00 22.6 10 Este 19 Este 0 1011.1 -0.6 58
2017-08-02 13:00:00 22.1 4 Nordeste 14 Norte 0 1011.7 0.2 62
2017-08-02 12:00:00 22 4 Noroeste 10 Oeste 0 1011.7 0.2 64
2017-08-02 11:00:00 21.6 3 Noroeste 6 Nordeste 0 1011.7 0.4 69
2017-08-02 10:00:00 19.5 4 Sudeste 22 Sudeste 0 1011.5 0.3 75
2017-08-02 09:00:00 16.7 18 Sudeste 26 Sudeste 0 1011.5 0.3 82
2017-08-02 08:00:00 15.4 17 Sudeste 30 Sudeste 0 1011.3 0 86
2017-08-02 07:00:00 14.8 22 Sudeste 28 Sudeste 0 1011.2 -0.2 88
2017-08-02 06:00:00 15.1 17 Sudeste 23 Sudeste 0 1011.2 -0.4 87
2017-08-02 05:00:00 14.9 17 Sudeste 22 Sudeste 0 1011.3 -0.6 87
2017-08-02 04:00:00 16.2 12 Sur 19 Sudoeste 0 1011.4 -0.6 83
2017-08-02 03:00:00 17.2 12 Sudoeste 15 Sudoeste 0 1011.6 -0.6 85
2017-08-02 02:00:00 16 10 Sur 19 Sudeste 0 1011.9 -0.5 87
2017-08-02 01:00:00 16.5 16 Sudeste 20 Sudeste 0 1012 0.1 87
2017-08-02 00:00:00 16.5 8 Sur 11 Sudeste 0 1012.2 1 85
2017-08-01 23:00:00 18 5 Sudeste 22 Este 0 1012.4 1.7 81
2017-08-01 22:00:00 19.2 14 Este 29 Este 0 1011.9 1.3 80
2017-08-01 21:00:00 19.4 13 Nordeste 31 Este 0 1011.2 0.7 76
2017-08-01 20:00:00 19.9 14 Nordeste 33 Nordeste 0 1010.7 0.1 71
2017-08-01 19:00:00 20.3 14 Nordeste 33 Nordeste 0 1010.6 -0.3 70
2017-08-01 18:00:00 20.5 15 Nordeste 31 Nordeste 0 1010.5 -0.3 69
2017-08-01 17:00:00 20.3 12 Nordeste 27 Nordeste 0 1010.6 -0.1 69
2017-08-01 16:00:00 19.7 9 Nordeste 32 Nordeste 0 1010.9 0.3 72
2017-08-01 15:00:00 19.8 12 Nordeste 31 Nordeste 0 1010.8 0.5 76
2017-08-01 14:00:00 19.4 9 Nordeste 23 Nordeste 0 1010.7 0.5 73
2017-08-01 13:00:00 19.1 6 Nordeste 18 Nordeste 0 1010.6 0.8 73
2017-08-01 12:00:00 19.1 4 Nordeste 11 Sudeste 0 1010.3 1.2 76
2017-08-01 11:00:00 18.2 4 Sudeste 13 Sudeste 0 1010.2 1.8 81
2017-08-01 10:00:00 17.2 8 Sudeste 17 Sudeste 0 1009.8 1.4 85
2017-08-01 09:00:00 16.2 11 Sudeste 20 Sudeste 0 1009.1 1.2 88
2017-08-01 08:00:00 15.8 14 Sudeste 24 Sudeste 0 1008.4 0.4 89
2017-08-01 07:00:00 15.8 8 Sur 18 Sudeste 0 1008.4 0.3 89
2017-08-01 06:00:00 15.8 10 Sudeste 19 Sudeste 0 1007.9 -0.3 89
2017-08-01 05:00:00 16.4 10 Sudeste 22 Nordeste 0 1008 -0.3 89
2017-08-01 04:00:00 16.6 6 Este 14 Sudeste 0 1008.1 -0.1 87
2017-08-01 03:00:00 16.6 10 Sur 14 Sur 0 1008.2 0.2 86
2017-08-01 02:00:00 16.8 10 Sudeste 17 Sudeste 0 1008.3 0.3 85
2017-08-01 01:00:00 16.8 13 Sudeste 17 Sudeste 0 1008.2 0.5 84
2017-08-01 00:00:00 16.8 9 Sudeste 16 Sudeste 0 1008 0.6 82
2017-07-31 23:00:00 16.7 8 Sudeste 20 Este 0 1008 0.9 81
2017-07-31 22:00:00 18.1 4 Sudeste 7 Sur 0 1007.7 0.6 81
2017-07-31 21:00:00 18.4 2 Oeste 9 Sudeste 0 1007.4 0.4 80
2017-07-31 20:00:00 18.2 7 Sudeste 12 Sudeste 0 1007.1 0 81
2017-07-31 19:00:00 17.9 7 Sudeste 11 Sudeste 0 1007.1 0 83
2017-07-31 18:00:00 18.1 5 Sur 13 Sudoeste 0 1007 0.2 82
2017-07-31 17:00:00 18 6 Sudoeste 17 Noroeste 0 1007.1 0.5 83
2017-07-31 16:00:00 18.2 7 Oeste 26 Norte 0 1007.1 0.5 79
2017-07-31 15:00:00 18.9 11 Noroeste 29 Noroeste 0 1006.8 -0.1 78
2017-07-31 14:00:00 19.9 18 Oeste 27 Oeste 0 1006.6 -0.1 77
2017-07-31 13:00:00 19.8 4 Oeste 12 Oeste 0 1006.6 0.2 78
2017-07-31 12:00:00 18.9 10 Noroeste 16 Oeste 0 1006.9 0.6 76
2017-07-31 11:00:00 19.8 6 Oeste 14 Oeste 0 1006.7 0.5 76
2017-07-31 10:00:00 18.3 7 Sudoeste 14 Oeste 0 1006.4 0.1 79
2017-07-31 09:00:00 17.3 6 Sudoeste 13 Sur 0 1006.3 0.4 80
2017-07-31 08:00:00 16.6 8 Sur 22 Sudeste 0 1006.2 -0.5 81
2017-07-31 07:00:00 16.4 14 Sudeste 21 Sudeste 0 1006.3 -0.7 82
2017-07-31 06:00:00 16.4 14 Sudeste 24 Sudeste 0 1005.9 -1.5 83
2017-07-31 05:00:00 16.9 9 Sudeste 22 Sudeste 0 1006.7 -1.4 80
2017-07-31 04:00:00 16.6 14 Sudeste 20 Sudeste 0 1007 -1.6 84
2017-07-31 03:00:00 16.8 13 Sur 18 Sur 0 1007.4 -1.5 83
2017-07-31 02:00:00 17.6 9 Sudoeste 18 Oeste 0 1008.1 -0.6 81
2017-07-31 01:00:00 18.8 10 Noroeste 16 Oeste 0 1008.6 0 76
2017-07-31 00:00:00 18.8 11 Noroeste 19 Oeste 0 1008.9 0.3 75
2017-07-30 23:00:00 18.9 14 Noroeste 19 Noroeste 0 1008.7 0.4 74
2017-07-30 22:00:00 18.9 13 Noroeste 19 Noroeste 0 1008.6 0.3 72
2017-07-30 21:00:00 19.1 12 Oeste 23 Noroeste 0 1008.6 0.3 75
2017-07-30 20:00:00 19.1 14 Oeste 28 Oeste 0 1008.3 0.1 72
2017-07-30 19:00:00 19.5 20 Noroeste 40 Oeste 0 1008.3 0.2 69
2017-07-30 18:00:00 19.5 26 Oeste 45 Oeste 0 1008.3 0.5 71
2017-07-30 17:00:00 19.8 19 Oeste 33 Oeste 0 1008.2 0.3 73
2017-07-30 16:00:00 20.5 22 Oeste 35 Noroeste 0 1008.1 0.5 74
2017-07-30 15:00:00 21.2 22 Noroeste 37 Oeste 0 1007.8 0.2 70
2017-07-30 14:00:00 20.9 16 Noroeste 30 Noroeste 0 1007.9 0.3 70
2017-07-30 13:00:00 22.2 5 Noroeste 27 Noroeste 0 1007.6 0 68
2017-07-30 12:00:00 20.2 21 Oeste 37 Oeste 0 1007.6 -0.1 75
2017-07-30 11:00:00 22.2 5 Nordeste 14 Noroeste 0 1007.6 0.1 68
2017-07-30 10:00:00 21.8 0 Calma 14 Oeste 0 1007.6 0.3 74
2017-07-30 09:00:00 19.3 10 Oeste 33 Oeste 0 1007.7 0.2 81
2017-07-30 08:00:00 19.1 12 Oeste 33 Noroeste 0 1007.5 -0.2 81
2017-07-30 07:00:00 19 14 Oeste 30 Oeste 0 1007.3 -0.6 83
2017-07-30 06:00:00 19.1 16 Oeste 39 Oeste 0 1007.5 -0.3 84
2017-07-30 05:00:00 19.2 15 Oeste 37 Oeste 0 1007.7 -0.2 84
2017-07-30 04:00:00 19.8 11 Oeste 39 Noroeste 0 1007.9 -0.2 85
2017-07-30 03:00:00 21.6 11 Sudoeste 23 Oeste 0 1007.8 0 61
2017-07-30 02:00:00 21.3 18 Oeste 31 Oeste 0 1007.9 0.1 66
2017-07-30 01:00:00 21.6 14 Oeste 40 Oeste 0 1008.1 0.9 66
2017-07-30 00:00:00 20.3 14 Sur 21 Sur 0 1007.8 1.1 85
2017-07-29 23:00:00 20.6 3 Sudoeste 15 Sudeste 0 1007.8 1.6 85
2017-07-29 22:00:00 21.2 11 Este 26 Este 0 1007.2 1.3 85
2017-07-29 21:00:00 22 11 Este 19 Este 0 1006.7 0.9 83
2017-07-29 20:00:00 23.4 7 Nordeste 18 Nordeste 0 1006.2 0.5 76
2017-07-29 19:00:00 24.3 8 Este 14 Este 0 1005.9 -0.1 70
2017-07-29 18:00:00 24.9 6 Este 20 Este 0 1005.8 -0.8 67
2017-07-29 17:00:00 24.6 12 Este 25 Este 0 1005.7 -1.4 65
2017-07-29 16:00:00 24.4 14 Este 23 Este 0 1006 -1.7 67
2017-07-29 15:00:00 24.2 12 Este 20 Este 0 1006.6 -1.5 70
2017-07-29 14:00:00 24.3 10 Este 18 Nordeste 0 1007.1 -1.5 69
2017-07-29 13:00:00 23.8 14 Este 20 Este 0 1007.7 -0.9 72
2017-07-29 12:00:00 23.8 13 Este 17 Este 0 1008.1 -0.1 70
2017-07-29 11:00:00 25.3 8 Oeste 18 Sudoeste 0 1008.6 0.3 60
2017-07-29 10:00:00 22.2 5 Nordeste 8 Este 0 1008.6 0.5 77
2017-07-29 09:00:00 21.4 3 Sudeste 11 Sur 0 1008.2 0 81
2017-07-29 08:00:00 19.2 8 Sudeste 12 Sudeste 0 1008.3 0.1 84
2017-07-29 07:00:00 19.6 10 Sudeste 17 Sur 0 1008.1 -0.2 83
2017-07-29 06:00:00 19.4 14 Sur 18 Sur 0 1008.2 -0.3 82
2017-07-29 05:00:00 19.5 12 Sur 16 Sur 0 1008.2 -0.8 82
2017-07-29 04:00:00 19 12 Sudeste 17 Sudeste 0 1008.3 -1.4 83
2017-07-29 03:00:00 19 10 Sudeste 17 Sudeste 0 1008.5 -1.8 83
2017-07-29 02:00:00 19.1 15 Sur 19 Sudeste 0 1009 -1.6 84
2017-07-29 01:00:00 19 13 Sudeste 21 Sudeste 0 1009.7 -0.5 85
2017-07-29 00:00:00 19.3 6 Sudeste 11 Este 0 1010.3 0 86
2017-07-28 23:00:00 19.7 5 Este 14 Este 0 1010.6 0.2 85
2017-07-28 22:00:00 19.7 11 Este 21 Este 0 1010.2 -0.3 84
2017-07-28 21:00:00 19.9 13 Este 23 Este 0 1010.3 -0.4 82
2017-07-28 20:00:00 20.5 13 Este 21 Este 0 1010.4 -0.2 77
2017-07-28 19:00:00 21.2 8 Este 16 Este 0 1010.5 -0.1 76
2017-07-28 18:00:00 21.4 6 Nordeste 20 Nordeste 0 1010.7 0 74
2017-07-28 17:00:00 21.8 6 Nordeste 19 Nordeste 0 1010.6 -0.4 73
2017-07-28 16:00:00 21.3 9 Nordeste 19 Este 0 1010.6 -0.3 73
2017-07-28 15:00:00 22.3 5 Nordeste 18 Nordeste 0 1010.7 -0.2 72
2017-07-28 14:00:00 22.2 4 Norte 14 Norte 0 1011 0.2 70
2017-07-28 13:00:00 22.2 4 Norte 13 Oeste 0 1010.9 -0.1 71
2017-07-28 12:00:00 21.6 3 Noroeste 9 Este 0 1010.9 0.2 74
2017-07-28 11:00:00 20.3 3 Norte 8 Noroeste 0 1010.8 0.2 82
2017-07-28 10:00:00 19.3 5 Oeste 10 Oeste 0 1011 0.7 85
2017-07-28 09:00:00 18.5 3 Oeste 7 Oeste 0 1010.7 0.6 88
2017-07-28 08:00:00 17.9 4 Oeste 7 Sur 0.2 1010.6 0.5 89
2017-07-28 07:00:00 17.6 5 Sur 12 Sur 0 1010.3 0.2 90
2017-07-28 06:00:00 17.6 9 Sur 12 Sudeste 0 1010.1 -0.1 90
2017-07-28 05:00:00 17.5 7 Sur 11 Sur 0 1010.1 -0.4 90
2017-07-28 04:00:00 17.4 7 Sur 13 Sur 0 1010.1 -0.7 90
2017-07-28 03:00:00 17.4 9 Sur 14 Sur 0 1010.2 -0.9 90
2017-07-28 02:00:00 17.5 10 Sur 13 Sur 0 1010.5 -0.6 91
2017-07-28 01:00:00 17.5 3 Sudoeste 9 Oeste 0 1010.8 0.1 91
2017-07-28 00:00:00 17.6 6 Oeste 13 Oeste 0 1011.1 1.3 92
2017-07-27 23:00:00 17.6 5 Oeste 22 Oeste 0.2 1011.1 1.7 92
2017-07-27 22:00:00 18 8 Noroeste 18 Oeste 0 1010.7 1.3 91
2017-07-27 21:00:00 18.5 14 Noroeste 18 Noroeste 0 1009.8 0.3 88
2017-07-27 20:00:00 18.6 5 Noroeste 17 Noroeste 0 1009.4 -0.1 89
2017-07-27 19:00:00 19.1 9 Noroeste 14 Oeste 0 1009.4 0.1 88
2017-07-27 18:00:00 19.3 5 Oeste 22 Noroeste 0 1009.5 0.4 89
2017-07-27 17:00:00 19.3 14 Noroeste 21 Noroeste 0 1009.5 0.5 87
2017-07-27 16:00:00 20.2 6 Oeste 18 Noroeste 0 1009.3 0.3 86
2017-07-27 15:00:00 20 14 Noroeste 33 Oeste 0 1009.1 0.4 86
2017-07-27 14:00:00 23.3 12 Oeste 21 Noroeste 0 1009 0.5 76
2017-07-27 13:00:00 22 10 Oeste 30 Oeste 0 1009 0.6 80
2017-07-27 12:00:00 21.8 5 Oeste 11 Noroeste 0 1008.7 0.3 75
2017-07-27 11:00:00 20.6 6 Noroeste 10 Noroeste 0 1008.5 0.4 77
2017-07-27 10:00:00 20.2 5 Sur 17 Sur 0 1008.4 0.1 77
2017-07-27 09:00:00 18.1 12 Sudeste 19 Sudeste 0 1008.4 0.6 81
2017-07-27 08:00:00 16.7 19 Sur 24 Sudeste 0 1008.1 0.1 85
2017-07-27 07:00:00 17.4 9 Sudoeste 14 Sudoeste 0 1008.3 -0.1 87
2017-07-27 06:00:00 15.3 13 Sur 21 Sudeste 0 1007.8 -0.9 89
2017-07-27 05:00:00 15.5 15 Sudeste 19 Sudeste 0 1008 -1 89
2017-07-27 04:00:00 15.6 15 Sudeste 23 Sudeste 0 1008.4 -1.5 88
2017-07-27 03:00:00 16.2 15 Sudeste 22 Sudeste 0 1008.7 -1.2 87
2017-07-27 02:00:00 16 16 Sudeste 20 Sur 0 1009 -0.7 88
2017-07-27 01:00:00 16.2 14 Sur 18 Sur 0 1009.9 0.2 87
2017-07-27 00:00:00 16.5 13 Sur 17 Sudeste 0 1009.9 0.3 86
2017-07-26 23:00:00 17 9 Sur 12 Oeste 0 1009.7 -0.2 83
2017-07-26 22:00:00 18.9 11 Oeste 18 Oeste 0 1009.7 -0.3 76
2017-07-26 21:00:00 19.9 5 Oeste 18 Oeste 0 1009.6 -0.4 72
2017-07-26 20:00:00 20.2 7 Oeste 22 Oeste 0 1009.9 -0.5 73
2017-07-26 19:00:00 20.1 14 Noroeste 19 Noroeste 0 1010 -0.7 70
2017-07-26 18:00:00 21 11 Oeste 20 Oeste 0 1010 -0.6 69
2017-07-26 17:00:00 21 15 Oeste 21 Oeste 0 1010.4 -0.8 69
2017-07-26 16:00:00 21 14 Oeste 26 Oeste 0 1010.7 -0.6 69
2017-07-26 15:00:00 20.7 19 Oeste 27 Noroeste 0 1010.6 -0.6 71
2017-07-26 14:00:00 21.8 10 Oeste 24 Oeste 0 1011.2 0.1 70
2017-07-26 13:00:00 20.9 12 Oeste 26 Oeste 0 1011.3 0.2 70
2017-07-26 12:00:00 21.4 13 Oeste 27 Oeste 0 1011.2 0.3 72
2017-07-26 11:00:00 21 9 Oeste 18 Oeste 0 1011.1 0.4 72
2017-07-26 10:00:00 18.4 8 Oeste 13 Oeste 0 1011.1 0.5 79
2017-07-26 09:00:00 16.7 10 Sur 15 Sur 0 1010.9 0.2 86
2017-07-26 08:00:00 15.4 10 Sur 15 Sur 0 1010.7 -0.1 88
2017-07-26 07:00:00 15 11 Sur 14 Sur 0 1010.6 -0.6 88
2017-07-26 06:00:00 14.6 9 Sur 12 Sudoeste 0 1010.7 -1.3 87
2017-07-26 05:00:00 14.8 11 Sur 14 Sur 0 1010.8 -1.7 88
2017-07-26 04:00:00 14.9 13 Sur 17 Sur 0 1011.2 -1.3 88
2017-07-26 03:00:00 14.8 9 Sur 11 Sur 0 1012 -1.2 88
2017-07-26 02:00:00 15 7 Sur 13 Sudeste 0 1012.5 -1 87
2017-07-26 01:00:00 15.4 11 Sudeste 14 Sudeste 0 1012.5 -1 85
2017-07-26 00:00:00 15.6 9 Sudeste 12 Sur 0 1013.2 -0.5 84
2017-07-25 23:00:00 16.7 4 Sudeste 8 Oeste 0 1013.5 0 79
2017-07-25 22:00:00 17.9 2 Sudeste 13 Noroeste 0 1013.5 -0.3 74
2017-07-25 21:00:00 18.8 6 Noroeste 13 Noroeste 0 1013.7 -0.4 72
2017-07-25 20:00:00 19.6 6 Noroeste 14 Oeste 0 1013.5 -1 70
2017-07-25 19:00:00 19.3 6 Noroeste 15 Noroeste 0 1013.8 -1.1 69
2017-07-25 18:00:00 19.9 4 Norte 15 Noroeste 0 1014.1 -1 69
2017-07-25 17:00:00 20.3 9 Noroeste 24 Noroeste 0 1014.5 -0.9 68
2017-07-25 16:00:00 20.4 9 Noroeste 19 Noroeste 0 1014.9 -0.6 68
2017-07-25 15:00:00 21 12 Noroeste 18 Oeste 0 1015.1 -0.7 67
2017-07-25 14:00:00 20.8 9 Noroeste 15 Noroeste 0 1015.4 -0.7 65
2017-07-25 13:00:00 21.1 6 Noroeste 14 Noroeste 0 1015.5 -0.7 65
2017-07-25 12:00:00 20.6 6 Noroeste 10 Noroeste 0 1015.8 -0.4 68
2017-07-25 11:00:00 19.5 4 Oeste 8 Oeste 0 1016.1 0.2 74
2017-07-25 10:00:00 18.2 3 Oeste 8 Sur 0 1016.2 0.2 83
2017-07-25 09:00:00 16.8 4 Sur 11 Sudeste 0 1016.2 0 88
2017-07-25 08:00:00 16.2 8 Sur 15 Sur 0 1015.9 -0.5 88
2017-07-25 07:00:00 16.2 11 Sudeste 13 Sudeste 0 1016 -0.5 88
2017-07-25 06:00:00 16.4 9 Sur 12 Sudoeste 0 1016.2 -0.9 86
2017-07-25 05:00:00 16.9 8 Sudoeste 13 Sudoeste 0 1016.4 -1.1 85
2017-07-25 04:00:00 16.8 7 Sudoeste 10 Sudoeste 0 1016.5 -1.5 86
2017-07-25 03:00:00 16.7 8 Sur 13 Sudeste 0 1017.1 -1.3 86
2017-07-25 02:00:00 16.9 9 Sur 15 Oeste 0 1017.5 -0.7 85
2017-07-25 01:00:00 17.3 13 Oeste 19 Oeste 0 1018 0.1 84
2017-07-25 00:00:00 17.4 12 Oeste 23 Oeste 0 1018.4 0.3 85
2017-07-24 23:00:00 17.7 13 Oeste 23 Oeste 0 1018.2 0 85
2017-07-24 22:00:00 17.8 6 Oeste 13 Oeste 0 1017.9 -0.4 83
2017-07-24 21:00:00 18.2 8 Oeste 12 Oeste 0 1018.1 -0.1 83
2017-07-24 20:00:00 18.5 4 Oeste 14 Noroeste 0 1018.2 -0.3 84
2017-07-24 19:00:00 17.6 14 Noroeste 28 Noroeste 0.4 1018.3 0 87
2017-07-24 18:00:00 20.3 10 Oeste 18 Oeste 0 1018.2 0.1 81
2017-07-24 17:00:00 19.3 7 Oeste 34 Noroeste 0 1018.5 0.7 86
2017-07-24 16:00:00 18.4 22 Noroeste 39 Oeste 0 1018.3 0.6 85
2017-07-24 15:00:00 21.3 15 Oeste 35 Noroeste 0 1018.1 0.6 77
2017-07-24 14:00:00 20 14 Oeste 39 Oeste 0 1017.8 0.5 80
2017-07-24 13:00:00 19.8 17 Oeste 41 Oeste 0.6 1017.7 0.8 86
2017-07-24 12:00:00 18.4 23 Oeste 39 Oeste 0.8 1017.5 1 88
2017-07-24 11:00:00 17.8 22 Oeste 48 Sudoeste 0.4 1017.3 1.2 88
2017-07-24 10:00:00 18 15 Oeste 41 Oeste 0 1016.9 1.5 89
2017-07-24 09:00:00 17.3 24 Oeste 36 Oeste 0.2 1016.5 1.1 91
2017-07-24 08:00:00 17.1 21 Oeste 43 Oeste 0.4 1016.1 0.9 91
2017-07-24 07:00:00 17.4 28 Oeste 49 Noroeste 0 1015.4 0.4 89
2017-07-24 06:00:00 17.6 19 Oeste 44 Oeste 0.4 1015.4 0 89
2017-07-24 05:00:00 17.7 28 Oeste 52 Oeste 0 1015.2 -0.1 90
2017-07-24 04:00:00 18.1 31 Oeste 48 Noroeste 0 1015 -0.3 89
2017-07-24 03:00:00 18.5 20 Oeste 46 Oeste 0 1015.4 0.7 88
2017-07-24 02:00:00 18.3 30 Oeste 48 Noroeste 0 1015.3 0.5 90
2017-07-24 01:00:00 18.7 27 Oeste 60 Oeste 0 1015.3 0.8 90
2017-07-24 00:00:00 18.8 34 Oeste 58 Oeste 0 1014.7 0.5 89
2017-07-23 23:00:00 19.4 26 Oeste 45 Oeste 0 1014.8 1 87
2017-07-23 22:00:00 19.6 19 Oeste 40 Sudoeste 0 1014.5 0.5 86
2017-07-23 21:00:00 20.1 21 Oeste 43 Oeste 0 1014.2 0.4 83
2017-07-23 20:00:00 20.7 25 Oeste 42 Oeste 0 1013.8 -0.3 80
2017-07-23 19:00:00 21.1 23 Oeste 31 Oeste 0 1014 -0.3 78
2017-07-23 18:00:00 22.2 17 Oeste 26 Oeste 0 1013.8 -0.6 73
2017-07-23 17:00:00 23.1 13 Oeste 24 Oeste 0 1014.1 -0.6 68
2017-07-23 16:00:00 23.6 7 Oeste 14 Oeste 0 1014.3 0.2 65
2017-07-23 15:00:00 22.9 8 Oeste 20 Sudoeste 0 1014.4 0 64
2017-07-23 14:00:00 22.5 7 Oeste 27 Noroeste 0 1014.7 -0.2 66
2017-07-23 13:00:00 20.7 26 Noroeste 29 Noroeste 0 1014.1 -0.9 68
2017-07-23 12:00:00 22.3 3 Sudoeste 17 Oeste 0 1014.4 -0.4 64
2017-07-23 11:00:00 19.6 12 Oeste 19 Sudoeste 0 1014.9 0.6 66
2017-07-23 10:00:00 18.5 7 Sudoeste 14 Sur 0 1015 1.1 69
2017-07-23 09:00:00 16.9 11 Sur 18 Sur 0 1014.8 1 77
2017-07-23 08:00:00 14.9 13 Sur 18 Sur 0 1014.3 0.5 81
2017-07-23 07:00:00 15.9 12 Sudoeste 21 Sudoeste 0 1013.9 -0.2 74
2017-07-23 06:00:00 16.5 13 Sudoeste 22 Sudoeste 0 1013.8 -0.4 71
2017-07-23 05:00:00 16.5 12 Sudoeste 20 Oeste 0 1013.8 -0.5 73
2017-07-23 04:00:00 17.2 14 Oeste 28 Oeste 0 1014.1 -0.1 73
2017-07-23 03:00:00 17.5 16 Oeste 28 Oeste 0 1014.2 0 73
2017-07-23 02:00:00 17.7 15 Oeste 21 Oeste 0 1014.3 0.3 74
2017-07-23 01:00:00 17.8 13 Oeste 23 Oeste 0 1014.2 1 75
2017-07-23 00:00:00 18 16 Oeste 29 Noroeste 0 1014.2 1.5 76